createdAt,value
2018-01-11T00:01:26.373Z,97.90
2018-01-11T00:03:53.880Z,97.90
2018-01-11T00:06:21.384Z,97.90
2018-01-11T00:08:48.852Z,98.10
2018-01-11T00:11:16.335Z,98.10
2018-01-11T00:13:43.802Z,98.00
2018-01-11T00:16:11.312Z,98.00
2018-01-11T00:18:38.764Z,98.10
2018-01-11T00:21:06.239Z,98.10
2018-01-11T00:23:33.713Z,98.10
2018-01-11T00:26:01.234Z,98.10
2018-01-11T00:28:28.724Z,98.10
2018-01-11T00:30:56.206Z,98.00
2018-01-11T00:33:23.678Z,97.80
2018-01-11T00:35:51.153Z,97.70
2018-01-11T00:38:19.407Z,97.70
2018-01-11T00:40:46.897Z,97.70
2018-01-11T00:43:14.399Z,97.80
2018-01-11T00:45:41.887Z,97.90
2018-01-11T00:48:09.353Z,97.80
2018-01-11T00:50:36.874Z,98.00
2018-01-11T00:53:04.404Z,97.80
2018-01-11T00:55:31.896Z,97.80
2018-01-11T00:57:59.372Z,97.80
2018-01-11T01:00:26.858Z,97.90
2018-01-11T01:02:54.357Z,98.00
2018-01-11T01:05:21.860Z,97.90
2018-01-11T01:07:49.398Z,97.90
2018-01-11T01:10:16.879Z,97.90
2018-01-11T01:12:44.480Z,97.90
2018-01-11T01:15:12.002Z,97.90
2018-01-11T01:17:39.518Z,98.00
2018-01-11T01:20:07.025Z,98.00
2018-01-11T01:22:36.012Z,98.00
2018-01-11T01:25:03.514Z,98.00
2018-01-11T01:27:31.198Z,98.00
2018-01-11T01:29:58.701Z,97.80
2018-01-11T01:32:26.182Z,97.70
2018-01-11T01:34:53.666Z,97.70
2018-01-11T01:37:21.166Z,97.50
2018-01-11T01:39:49.026Z,97.50
2018-01-11T01:42:17.255Z,97.50
2018-01-11T01:44:44.737Z,97.50
2018-01-11T01:47:12.203Z,97.40
2018-01-11T01:49:39.690Z,97.30
2018-01-11T01:52:07.226Z,97.30
2018-01-11T01:54:35.491Z,97.30
2018-01-11T01:57:02.971Z,97.30
2018-01-11T01:59:31.199Z,97.40
2018-01-11T02:01:58.659Z,97.40
2018-01-11T02:04:26.156Z,97.40
2018-01-11T02:06:53.634Z,97.30
2018-01-11T02:09:21.109Z,97.30
2018-01-11T02:11:48.604Z,97.30
2018-01-11T02:14:16.118Z,97.40
2018-01-11T02:16:43.591Z,97.40
2018-01-11T02:19:11.128Z,97.60
2018-01-11T02:21:38.648Z,97.60
2018-01-11T02:24:06.156Z,97.60
2018-01-11T02:26:33.634Z,97.60
2018-01-11T02:29:01.120Z,97.60
2018-01-11T02:31:29.498Z,97.50
2018-01-11T02:33:57.017Z,97.50
2018-01-11T02:36:24.506Z,97.50
2018-01-11T02:38:52.033Z,97.50
2018-01-11T02:41:20.143Z,97.40
2018-01-11T02:43:47.663Z,97.50
2018-01-11T02:46:15.242Z,97.60
2018-01-11T02:48:42.744Z,97.60
2018-01-11T02:51:10.224Z,97.70
2018-01-11T02:53:37.724Z,97.70
2018-01-11T02:56:05.223Z,97.70
2018-01-11T02:58:32.716Z,97.60
2018-01-11T03:01:00.262Z,97.60
2018-01-11T03:03:27.786Z,97.70
2018-01-11T03:05:55.266Z,97.70
2018-01-11T03:08:22.775Z,97.70
2018-01-11T03:10:51.189Z,97.90
2018-01-11T03:13:18.710Z,97.90
2018-01-11T03:15:46.263Z,97.90
2018-01-11T03:18:13.744Z,97.90
2018-01-11T03:20:41.268Z,97.90
2018-01-11T03:23:08.791Z,97.80
2018-01-11T03:25:36.256Z,97.80
2018-01-11T03:28:03.772Z,97.80
2018-01-11T03:30:31.238Z,97.70
2018-01-11T03:32:58.743Z,97.80
2018-01-11T03:35:26.290Z,97.90
2018-01-11T03:37:53.790Z,98.10
2018-01-11T03:40:21.259Z,98.20
2018-01-11T03:42:49.617Z,98.30
2018-01-11T03:45:17.114Z,98.30
2018-01-11T03:47:44.596Z,98.40
2018-01-11T03:50:12.068Z,98.40
2018-01-11T03:52:39.533Z,98.40
2018-01-11T03:55:07.034Z,98.40
2018-01-11T03:57:34.524Z,98.40
2018-01-11T04:00:02.034Z,98.30
2018-01-11T04:02:30.302Z,98.30
2018-01-11T04:04:57.812Z,98.20
2018-01-11T04:07:25.282Z,98.20
2018-01-11T04:09:52.776Z,98.30
2018-01-11T04:12:21.018Z,98.50
2018-01-11T04:14:48.541Z,98.50
2018-01-11T04:17:16.017Z,98.50
2018-01-11T04:19:43.504Z,98.60
2018-01-11T04:22:11.033Z,98.70
2018-01-11T04:24:38.515Z,98.80
2018-01-11T04:27:05.990Z,98.90
2018-01-11T04:29:33.479Z,99.00
2018-01-11T04:32:00.996Z,99.10
2018-01-11T04:34:28.483Z,99.40
2018-01-11T04:36:56.713Z,99.60
2018-01-11T04:39:24.239Z,99.60
2018-01-11T04:41:51.733Z,99.80
2018-01-11T04:44:19.210Z,99.90
2018-01-11T04:46:46.686Z,99.90
2018-01-11T04:49:14.189Z,99.90
2018-01-11T04:51:41.671Z,99.90
2018-01-11T04:54:09.162Z,99.90
2018-01-11T04:56:37.389Z,99.90
2018-01-11T04:59:04.864Z,99.90
2018-01-11T05:01:32.341Z,99.90
2018-01-11T05:04:00.624Z,99.90
2018-01-11T05:06:28.862Z,99.90
2018-01-11T05:08:56.330Z,99.90
2018-01-11T05:11:24.083Z,99.90
2018-01-11T05:13:51.552Z,99.90
2018-01-11T05:16:19.016Z,99.90
2018-01-11T05:18:46.507Z,99.90
2018-01-11T05:21:13.990Z,99.90
2018-01-11T05:23:41.473Z,99.90
2018-01-11T05:26:08.952Z,99.90
2018-01-11T05:28:36.421Z,99.90
2018-01-11T05:31:03.894Z,99.90
2018-01-11T05:33:31.372Z,99.90
2018-01-11T05:35:58.868Z,99.90
2018-01-11T05:38:26.568Z,99.90
2018-01-11T05:40:54.101Z,99.90
2018-01-11T05:43:22.358Z,99.90
2018-01-11T05:45:49.833Z,99.90
2018-01-11T05:48:18.098Z,99.90
2018-01-11T05:50:45.583Z,99.90
2018-01-11T05:53:13.086Z,99.90
2018-01-11T05:55:40.598Z,99.90
2018-01-11T05:58:08.088Z,99.90
2018-01-11T06:00:35.653Z,99.90
2018-01-11T06:03:03.159Z,99.90
2018-01-11T06:05:31.425Z,99.90
2018-01-11T06:07:58.944Z,99.90
2018-01-11T06:10:26.444Z,99.90
2018-01-11T06:12:54.723Z,99.90
2018-01-11T06:15:22.747Z,99.90
2018-01-11T06:17:50.268Z,99.90
2018-01-11T06:20:18.500Z,99.90
2018-01-11T06:22:47.000Z,99.90
2018-01-11T06:25:14.482Z,99.90
2018-01-11T06:27:42.078Z,99.90
2018-01-11T06:30:09.587Z,99.90
2018-01-11T06:32:37.874Z,99.90
2018-01-11T06:35:07.294Z,99.90
2018-01-11T06:37:34.842Z,99.90
2018-01-11T06:40:14.646Z,99.90
2018-01-11T06:42:49.434Z,99.90
2018-01-11T06:45:21.845Z,99.90
2018-01-11T06:47:49.811Z,99.90
2018-01-11T06:50:17.580Z,99.90
2018-01-11T06:52:45.307Z,99.90
2018-01-11T06:55:12.957Z,99.90
2018-01-11T06:57:40.718Z,99.90
2018-01-11T07:00:08.368Z,99.90
2018-01-11T07:02:36.789Z,99.90
2018-01-11T07:05:04.359Z,99.90
2018-01-11T07:07:32.269Z,99.90
2018-01-11T07:09:59.824Z,99.90
2018-01-11T07:12:27.471Z,99.90
2018-01-11T07:14:54.990Z,99.90
2018-01-11T07:17:22.576Z,99.90
2018-01-11T07:19:50.173Z,99.90
2018-01-11T07:22:17.755Z,99.90
2018-01-11T07:24:45.362Z,99.90
2018-01-11T07:27:12.961Z,99.90
2018-01-11T07:29:40.479Z,99.90
2018-01-11T07:32:08.043Z,99.90
2018-01-11T07:34:36.296Z,99.90
2018-01-11T07:37:03.755Z,99.90
2018-01-11T07:39:31.234Z,99.90
2018-01-11T07:41:58.706Z,99.90
2018-01-11T07:44:26.958Z,99.90
2018-01-11T07:46:54.519Z,99.90
2018-01-11T07:49:22.107Z,99.90
2018-01-11T07:51:50.455Z,99.90
2018-01-11T07:54:17.947Z,99.90
2018-01-11T07:56:45.447Z,99.90
2018-01-11T07:59:12.951Z,99.90
2018-01-11T08:01:41.232Z,99.90
2018-01-11T08:04:08.738Z,99.90
2018-01-11T08:06:36.200Z,99.90
2018-01-11T08:09:03.690Z,99.90
2018-01-11T08:11:31.195Z,99.90
2018-01-11T08:13:58.688Z,99.90
2018-01-11T08:16:26.178Z,99.90
2018-01-11T08:18:53.646Z,99.90
2018-01-11T08:21:21.137Z,99.90
2018-01-11T08:23:48.616Z,99.90
2018-01-11T08:26:16.106Z,99.90
2018-01-11T08:28:43.599Z,99.90
2018-01-11T08:31:11.113Z,99.90
2018-01-11T08:33:39.410Z,99.90
2018-01-11T08:36:06.902Z,99.90
2018-01-11T08:38:34.357Z,99.90
2018-01-11T08:41:01.962Z,99.90
2018-01-11T08:43:29.457Z,99.90
2018-01-11T08:45:56.988Z,99.90
2018-01-11T08:48:25.258Z,99.90
2018-01-11T08:50:52.736Z,99.90
2018-01-11T08:53:20.231Z,99.90
2018-01-11T08:55:47.727Z,99.90
2018-01-11T08:58:15.219Z,99.90
2018-01-11T09:00:42.690Z,99.90
2018-01-11T09:03:10.172Z,99.90
2018-01-11T09:05:37.674Z,99.90
2018-01-11T09:08:05.159Z,99.90
2018-01-11T09:10:32.627Z,99.90
2018-01-11T09:13:00.118Z,99.90
2018-01-11T09:15:27.610Z,99.90
2018-01-11T09:17:55.082Z,99.90
2018-01-11T09:20:22.557Z,99.90
2018-01-11T09:22:50.042Z,99.90
2018-01-11T09:25:17.535Z,99.90
2018-01-11T09:27:45.042Z,99.90
2018-01-11T09:30:12.542Z,99.90
2018-01-11T09:32:40.807Z,99.90
2018-01-11T09:35:09.119Z,99.90
2018-01-11T09:37:36.610Z,99.90
2018-01-11T09:40:04.088Z,99.90
2018-01-11T09:42:32.339Z,99.90
2018-01-11T09:44:59.832Z,99.90
2018-01-11T09:47:27.301Z,99.90
2018-01-11T09:49:54.790Z,99.90
2018-01-11T09:52:22.261Z,99.90
2018-01-11T09:54:49.744Z,99.90
2018-01-11T09:57:17.206Z,99.90
2018-01-11T09:59:44.694Z,99.90
2018-01-11T10:02:12.175Z,99.90
2018-01-11T10:04:39.718Z,99.90
2018-01-11T10:07:07.251Z,99.90
2018-01-11T10:09:35.481Z,99.90
2018-01-11T10:12:02.982Z,99.90
2018-01-11T10:14:31.250Z,99.90
2018-01-11T10:16:58.750Z,99.90
2018-01-11T10:19:26.224Z,99.90
2018-01-11T10:21:53.701Z,99.90
2018-01-11T10:24:21.191Z,99.90
2018-01-11T10:26:48.654Z,99.90
2018-01-11T10:29:16.126Z,99.90
2018-01-11T10:31:43.578Z,99.90
2018-01-11T10:34:11.073Z,99.90
2018-01-11T10:36:38.551Z,99.90
2018-01-11T10:39:06.032Z,99.90
2018-01-11T10:41:34.341Z,99.90
2018-01-11T10:44:01.858Z,99.90
2018-01-11T10:46:29.306Z,99.90
2018-01-11T10:48:56.784Z,99.90
2018-01-11T10:51:24.276Z,99.90
2018-01-11T10:53:51.769Z,99.90
2018-01-11T10:56:19.264Z,99.90
2018-01-11T10:58:46.753Z,99.90
2018-01-11T11:01:19.898Z,99.90
2018-01-11T11:03:48.148Z,99.90
2018-01-11T11:06:15.626Z,99.90
2018-01-11T11:08:43.941Z,99.90
2018-01-11T11:11:11.411Z,99.90
2018-01-11T11:13:38.894Z,99.90
2018-01-11T11:16:06.399Z,99.90
2018-01-11T11:18:33.959Z,99.90
2018-01-11T11:21:01.444Z,99.90
2018-01-11T11:23:28.909Z,99.90
2018-01-11T11:25:56.386Z,99.90
2018-01-11T11:28:23.870Z,99.90
2018-01-11T11:30:52.144Z,99.90
2018-01-11T11:33:19.621Z,99.90
2018-01-11T11:35:47.112Z,99.90
2018-01-11T11:38:14.610Z,99.90
2018-01-11T11:40:42.090Z,99.90
2018-01-11T11:43:09.586Z,99.90
2018-01-11T11:45:37.071Z,99.90
2018-01-11T11:48:05.149Z,99.90
2018-01-11T11:50:32.635Z,99.90
2018-01-11T11:53:00.135Z,99.90
2018-01-11T11:55:27.610Z,99.90
2018-01-11T11:57:55.085Z,99.90
2018-01-11T12:00:22.560Z,99.90
2018-01-11T12:02:50.047Z,99.90
2018-01-11T12:05:17.531Z,99.90
2018-01-11T12:07:44.990Z,99.90
2018-01-11T12:10:12.496Z,99.90
2018-01-11T12:12:39.994Z,99.90
2018-01-11T12:15:07.466Z,99.90
2018-01-11T12:17:34.972Z,99.90
2018-01-11T12:20:02.454Z,99.90
2018-01-11T12:22:29.949Z,99.90
2018-01-11T12:24:57.450Z,99.90
2018-01-11T12:27:24.949Z,99.90
2018-01-11T12:29:52.435Z,99.90
2018-01-11T12:32:20.681Z,99.90
2018-01-11T12:34:48.170Z,99.90
2018-01-11T12:37:15.622Z,99.90
2018-01-11T12:39:43.875Z,99.90
2018-01-11T12:42:11.343Z,99.90
2018-01-11T12:44:38.818Z,99.90
2018-01-11T12:47:06.274Z,99.90
2018-01-11T12:49:33.729Z,99.90
2018-01-11T12:52:01.969Z,99.90
2018-01-11T12:54:29.427Z,99.90
2018-01-11T12:56:56.891Z,99.90
2018-01-11T12:59:24.365Z,99.90
2018-01-11T13:01:51.813Z,99.90
2018-01-11T13:04:19.269Z,99.90
2018-01-11T13:06:46.738Z,99.90
2018-01-11T13:09:14.193Z,99.90
2018-01-11T13:11:41.650Z,99.90
2018-01-11T13:14:09.126Z,99.90
2018-01-11T13:16:36.579Z,99.90
2018-01-11T13:19:04.042Z,99.90
2018-01-11T13:21:32.262Z,99.90
2018-01-11T13:23:59.734Z,99.90
2018-01-11T13:26:27.209Z,99.90
2018-01-11T13:28:55.386Z,99.90
2018-01-11T13:31:23.618Z,99.90
2018-01-11T13:33:51.094Z,99.90
2018-01-11T13:36:18.555Z,99.90
2018-01-11T13:38:46.019Z,99.90
2018-01-11T13:41:13.487Z,99.90
2018-01-11T13:43:40.936Z,99.90
2018-01-11T13:46:09.079Z,99.90
2018-01-11T13:48:36.541Z,99.90
2018-01-11T13:51:03.989Z,99.90
2018-01-11T13:53:31.502Z,99.90
2018-01-11T13:55:59.749Z,99.90
2018-01-11T13:58:27.282Z,99.90
2018-01-11T14:00:54.745Z,99.90
2018-01-11T14:03:22.217Z,99.90
2018-01-11T14:05:49.674Z,99.90
2018-01-11T14:08:17.126Z,99.90
2018-01-11T14:10:44.591Z,99.90
2018-01-11T14:13:12.050Z,99.90
2018-01-11T14:15:39.523Z,99.90
2018-01-11T14:18:07.765Z,99.90
2018-01-11T14:20:35.241Z,99.90
2018-01-11T14:23:02.726Z,99.90
2018-01-11T14:25:30.223Z,99.90
2018-01-11T14:27:57.696Z,99.90
2018-01-11T14:30:25.172Z,99.90
2018-01-11T14:32:52.639Z,99.90
2018-01-11T14:35:20.159Z,99.90
2018-01-11T14:37:47.929Z,99.90
2018-01-11T14:40:17.390Z,99.90
2018-01-11T14:42:44.891Z,99.90
2018-01-11T14:45:12.351Z,99.90
2018-01-11T14:47:39.840Z,99.90
2018-01-11T14:50:07.291Z,99.90
2018-01-11T14:52:34.763Z,99.90
2018-01-11T14:55:02.230Z,99.90
2018-01-11T14:57:29.686Z,99.90
2018-01-11T14:59:57.147Z,99.90
2018-01-11T15:02:24.618Z,99.90
2018-01-11T15:04:52.074Z,99.90
2018-01-11T15:07:19.538Z,99.90
2018-01-11T15:09:47.022Z,99.90
2018-01-11T15:12:14.490Z,99.90
2018-01-11T15:14:41.943Z,99.90
2018-01-11T15:17:09.416Z,99.90
2018-01-11T15:19:36.895Z,99.90
2018-01-11T15:22:04.405Z,99.90
2018-01-11T15:24:31.898Z,99.90
2018-01-11T15:26:59.349Z,99.90
2018-01-11T15:29:26.824Z,99.90
2018-01-11T15:31:55.066Z,99.90
2018-01-11T15:34:22.522Z,99.90
2018-01-11T15:36:50.003Z,99.90
2018-01-11T15:39:18.241Z,99.90
2018-01-11T15:41:45.699Z,99.90
2018-01-11T15:44:13.166Z,99.90
2018-01-11T15:46:40.636Z,99.90
2018-01-11T15:49:08.101Z,99.90
2018-01-11T15:51:36.332Z,99.90
2018-01-11T15:54:03.817Z,99.90
2018-01-11T15:56:31.289Z,99.90
2018-01-11T15:58:59.868Z,99.90
2018-01-11T16:01:27.337Z,99.90
2018-01-11T16:03:55.589Z,99.90
2018-01-11T16:06:23.074Z,99.90
2018-01-11T16:08:51.309Z,99.90
2018-01-11T16:11:18.806Z,99.90
2018-01-11T16:13:47.073Z,99.90
2018-01-11T16:16:15.350Z,99.90
2018-01-11T16:18:42.822Z,99.90
2018-01-11T16:21:10.318Z,99.90
2018-01-11T16:23:37.802Z,99.90
2018-01-11T16:26:05.281Z,99.90
2018-01-11T16:28:33.550Z,99.90
2018-01-11T16:31:01.012Z,99.90
2018-01-11T16:33:28.496Z,99.90
2018-01-11T16:35:55.944Z,99.90
2018-01-11T16:38:23.399Z,99.90
2018-01-11T16:40:50.861Z,99.90
2018-01-11T16:43:18.306Z,99.90
2018-01-11T16:45:46.536Z,99.90
2018-01-11T16:48:14.005Z,99.90
2018-01-11T16:50:41.494Z,99.90
2018-01-11T16:53:08.949Z,99.90
2018-01-11T16:55:37.191Z,99.90
2018-01-11T16:58:04.649Z,99.90
2018-01-11T17:00:32.102Z,99.90
2018-01-11T17:02:59.562Z,99.90
2018-01-11T17:05:27.045Z,99.90
2018-01-11T17:07:54.514Z,99.90
2018-01-11T17:10:22.782Z,99.90
2018-01-11T17:12:51.021Z,99.90
2018-01-11T17:15:18.482Z,99.90
2018-01-11T17:17:45.946Z,99.90
2018-01-11T17:20:13.418Z,99.90
2018-01-11T17:22:40.873Z,99.90
2018-01-11T17:25:08.326Z,99.90
2018-01-11T17:27:35.781Z,99.90
2018-01-11T17:30:03.237Z,99.90
2018-01-11T17:32:30.702Z,99.90
2018-01-11T17:34:58.161Z,99.90
2018-01-11T17:37:26.395Z,99.90
2018-01-11T17:39:53.838Z,99.90
2018-01-11T17:42:21.313Z,99.90
2018-01-11T17:44:48.793Z,99.90
2018-01-11T17:47:16.254Z,99.90
2018-01-11T17:49:43.714Z,99.90
2018-01-11T17:52:11.166Z,99.90
2018-01-11T17:54:38.762Z,99.90
2018-01-11T17:57:06.279Z,99.90
2018-01-11T17:59:59.541Z,99.90
2018-01-11T18:02:43.825Z,99.90
2018-01-11T18:05:18.485Z,99.90
2018-01-11T18:13:36.520Z,99.90
2018-01-11T18:16:09.398Z,99.90
2018-01-11T18:18:37.166Z,99.90
2018-01-11T18:21:04.716Z,99.90
2018-01-11T18:23:32.284Z,99.90
2018-01-11T18:25:59.797Z,99.90
2018-01-11T18:28:28.398Z,99.90
2018-01-11T18:30:59.630Z,99.90
2018-01-11T18:33:27.561Z,99.90
2018-01-11T18:36:02.161Z,99.90
2018-01-11T18:38:31.493Z,99.90
2018-01-11T18:41:07.593Z,99.90
2018-01-11T18:43:35.327Z,99.90
2018-01-11T18:46:02.917Z,99.90
2018-01-11T18:48:30.433Z,99.90
2018-01-11T18:51:02.019Z,99.90
2018-01-11T18:53:30.646Z,99.90
2018-01-11T18:55:59.467Z,99.90
2018-01-11T18:58:31.287Z,99.90
2018-01-11T19:00:59.276Z,99.90
2018-01-11T19:03:27.402Z,99.90
2018-01-11T19:05:58.044Z,99.90
2018-01-11T19:08:25.724Z,99.90
2018-01-11T19:10:55.274Z,99.90
2018-01-11T19:13:23.259Z,99.90
2018-01-11T19:15:56.495Z,99.90
2018-01-11T19:18:24.070Z,99.90
2018-01-11T19:26:48.344Z,99.90
2018-01-11T19:29:16.914Z,99.90
2018-01-11T19:31:45.393Z,99.90
2018-01-11T19:34:14.920Z,99.90
2018-01-11T19:36:42.506Z,99.90
2018-01-11T19:39:10.031Z,99.90
2018-01-11T19:41:37.521Z,99.90
2018-01-11T19:44:05.902Z,99.90
2018-01-11T19:46:34.393Z,99.90
2018-01-11T19:49:02.026Z,99.90
2018-01-11T19:51:29.605Z,99.90
2018-01-11T19:53:57.119Z,99.90
2018-01-11T19:56:24.599Z,99.90
2018-01-11T19:58:52.081Z,99.90
2018-01-11T20:01:19.539Z,99.90
2018-01-11T20:03:47.007Z,99.90
2018-01-11T20:06:14.522Z,99.90
2018-01-11T20:08:42.015Z,99.90
2018-01-11T20:11:10.289Z,99.90
2018-01-11T20:13:38.002Z,99.90
2018-01-11T20:16:05.610Z,99.90
2018-01-11T20:18:33.134Z,99.90
2018-01-11T20:21:00.861Z,99.90
2018-01-11T20:23:28.567Z,99.90
2018-01-11T20:25:57.842Z,99.90
2018-01-11T20:28:25.554Z,99.90
2018-01-11T20:30:53.067Z,99.90
2018-01-11T20:33:38.079Z,99.90
2018-01-11T20:36:12.925Z,99.90
2018-01-11T20:41:24.001Z,99.90
2018-01-11T20:43:51.555Z,99.90
2018-01-11T20:46:20.357Z,99.90
2018-01-11T20:48:50.904Z,99.90
2018-01-11T20:51:18.729Z,99.90
2018-01-11T20:53:46.338Z,99.90
2018-01-11T20:56:13.911Z,99.90
2018-01-11T20:58:41.422Z,99.90
2018-01-11T21:01:09.174Z,99.90
2018-01-11T21:03:37.495Z,99.90
2018-01-11T21:06:05.012Z,99.90
2018-01-11T21:08:32.651Z,99.90
2018-01-11T21:11:00.916Z,99.90
2018-01-11T21:13:28.478Z,99.90
2018-01-11T21:15:56.123Z,99.90
2018-01-11T21:18:24.610Z,99.90
2018-01-11T21:20:52.092Z,99.90
2018-01-11T21:23:19.574Z,99.90
2018-01-11T21:25:47.120Z,99.90
2018-01-11T21:28:14.579Z,99.90
2018-01-11T21:30:42.821Z,99.90
2018-01-11T21:33:10.314Z,99.90
2018-01-11T21:35:38.664Z,99.90
2018-01-11T21:38:06.483Z,99.90
2018-01-11T21:40:34.920Z,99.90
2018-01-11T21:43:02.442Z,99.90
2018-01-11T21:45:29.924Z,99.90
2018-01-11T21:47:57.415Z,99.90
2018-01-11T21:50:25.650Z,99.90
2018-01-11T21:52:53.154Z,99.90
2018-01-11T21:55:20.898Z,99.90
2018-01-11T21:57:48.581Z,99.90
2018-01-11T22:00:16.067Z,99.90
2018-01-11T22:02:43.551Z,99.90
2018-01-11T22:05:11.078Z,99.90
2018-01-11T22:07:38.562Z,99.90
2018-01-11T22:10:06.071Z,99.90
2018-01-11T22:12:33.626Z,99.90
2018-01-11T22:15:01.883Z,99.90
2018-01-11T22:17:29.368Z,99.90
2018-01-11T22:19:56.891Z,99.90
2018-01-11T22:22:25.160Z,99.90
2018-01-11T22:24:52.765Z,99.90
2018-01-11T22:27:20.512Z,99.90
2018-01-11T22:29:48.077Z,99.90
2018-01-11T22:32:15.668Z,99.90
2018-01-11T22:34:43.388Z,99.90
2018-01-11T22:37:11.650Z,99.90
2018-01-11T22:39:39.149Z,99.90
2018-01-11T22:42:06.751Z,99.90
2018-01-11T22:44:34.239Z,99.90
2018-01-11T22:47:01.792Z,99.90
2018-01-11T22:49:29.274Z,99.90
2018-01-11T22:51:56.783Z,99.90
2018-01-11T22:54:24.261Z,99.90
2018-01-11T22:56:52.513Z,99.90
2018-01-11T22:59:20.103Z,99.90
2018-01-11T23:01:47.603Z,99.90
2018-01-11T23:04:15.074Z,99.90
2018-01-11T23:06:42.555Z,99.90
2018-01-11T23:09:10.080Z,99.90
2018-01-11T23:11:43.443Z,99.90
2018-01-11T23:14:10.931Z,99.90
2018-01-11T23:16:38.407Z,99.90
2018-01-11T23:19:05.886Z,99.90
2018-01-11T23:21:33.379Z,99.90
2018-01-11T23:24:01.733Z,99.90
2018-01-11T23:26:29.214Z,99.90
2018-01-11T23:28:56.804Z,99.90
2018-01-11T23:31:24.817Z,99.90
2018-01-11T23:33:52.371Z,99.90
2018-01-11T23:36:19.925Z,99.90
2018-01-11T23:38:47.448Z,99.90
2018-01-11T23:41:15.064Z,99.90
2018-01-11T23:43:42.831Z,99.90
2018-01-11T23:46:10.710Z,99.90
2018-01-11T23:48:38.310Z,99.90
2018-01-11T23:51:05.810Z,99.90
2018-01-11T23:53:33.283Z,99.90
2018-01-11T23:56:00.784Z,99.90
2018-01-11T23:58:28.278Z,99.90
